createdAt,value
2017-07-26T00:02:19.449Z,97995.17
2017-07-26T00:04:46.997Z,98018.55
2017-07-26T00:07:14.517Z,97986.59
2017-07-26T00:09:42.084Z,98007.52
2017-07-26T00:12:09.614Z,98015.30
2017-07-26T00:14:37.168Z,97996.52
2017-07-26T00:17:04.691Z,98004.85
2017-07-26T00:19:32.236Z,97985.79
2017-07-26T00:21:59.740Z,97985.39
2017-07-26T00:24:27.270Z,97982.11
2017-07-26T00:26:54.832Z,97992.59
2017-07-26T00:29:22.364Z,97998.34
2017-07-26T00:31:49.913Z,97998.42
2017-07-26T00:34:17.434Z,97994.59
2017-07-26T00:36:44.986Z,98010.98
2017-07-26T00:39:12.509Z,98031.80
2017-07-26T00:41:40.060Z,98017.96
2017-07-26T00:44:07.577Z,98003.09
2017-07-26T00:46:35.122Z,98009.31
2017-07-26T00:49:02.641Z,98000.14
2017-07-26T00:51:30.222Z,97998.09
2017-07-26T00:53:57.746Z,98006.28
2017-07-26T00:56:25.325Z,98002.77
2017-07-26T00:58:52.845Z,98013.58
2017-07-26T01:01:20.435Z,98020.27
2017-07-26T01:03:47.974Z,98022.16
2017-07-26T01:06:15.518Z,98014.45
2017-07-26T01:08:43.048Z,98020.73
2017-07-26T01:11:10.614Z,98018.58
2017-07-26T01:13:38.148Z,98017.70
2017-07-26T01:16:05.671Z,98022.56
2017-07-26T01:18:33.233Z,98015.41
2017-07-26T01:21:00.751Z,98016.91
2017-07-26T01:23:28.321Z,98018.73
2017-07-26T01:25:55.850Z,98030.27
2017-07-26T01:28:23.365Z,98037.56
2017-07-26T01:30:50.936Z,98026.28
2017-07-26T01:33:18.454Z,98031.69
2017-07-26T01:35:45.968Z,98041.84
2017-07-26T01:38:13.516Z,98036.22
2017-07-26T01:40:41.031Z,98045.13
2017-07-26T01:43:08.578Z,98042.02
2017-07-26T01:45:36.094Z,98049.03
2017-07-26T01:48:03.651Z,98049.80
2017-07-26T01:50:31.169Z,98057.69
2017-07-26T01:52:58.714Z,98051.26
2017-07-26T01:55:26.231Z,98052.06
2017-07-26T01:57:53.805Z,98056.59
2017-07-26T02:00:21.332Z,98065.98
2017-07-26T02:02:48.892Z,98073.03
2017-07-26T02:05:16.407Z,98068.02
2017-07-26T02:07:43.965Z,98065.87
2017-07-26T02:10:11.571Z,98072.80
2017-07-26T02:12:39.128Z,98073.68
2017-07-26T02:15:06.691Z,98073.90
2017-07-26T02:17:34.225Z,98079.56
2017-07-26T02:20:01.777Z,98100.12
2017-07-26T02:22:29.292Z,98103.98
2017-07-26T02:24:56.842Z,98102.92
2017-07-26T02:27:24.360Z,98101.17
2017-07-26T02:29:51.938Z,98108.00
2017-07-26T02:32:19.456Z,98108.55
2017-07-26T02:34:47.008Z,98108.70
2017-07-26T02:37:14.526Z,98108.22
2017-07-26T02:39:42.076Z,98104.97
2017-07-26T02:42:09.606Z,98141.92
2017-07-26T02:44:37.158Z,98120.16
2017-07-26T02:47:04.678Z,98114.69
2017-07-26T02:49:32.233Z,98117.72
2017-07-26T02:51:59.759Z,98120.02
2017-07-26T02:54:27.319Z,98126.25
2017-07-26T02:56:54.897Z,98135.34
2017-07-26T02:59:22.458Z,98134.77
2017-07-26T03:01:50.015Z,98134.63
2017-07-26T03:04:17.578Z,98133.41
2017-07-26T03:06:45.104Z,98140.56
2017-07-26T03:09:12.626Z,98138.83
2017-07-26T03:11:40.164Z,98142.81
2017-07-26T03:14:07.684Z,98150.31
2017-07-26T03:16:35.234Z,98156.19
2017-07-26T03:19:02.753Z,98147.19
2017-07-26T03:21:30.298Z,98140.64
2017-07-26T03:23:57.812Z,98149.20
2017-07-26T03:26:25.363Z,98140.83
2017-07-26T03:28:52.877Z,98149.23
2017-07-26T03:31:20.426Z,98142.47
2017-07-26T03:33:47.950Z,98147.39
2017-07-26T03:36:15.509Z,98153.82
2017-07-26T03:38:43.033Z,98152.11
2017-07-26T03:41:10.581Z,98158.86
2017-07-26T03:43:38.221Z,98148.86
2017-07-26T03:46:05.949Z,98149.87
2017-07-26T03:48:33.470Z,98158.67
2017-07-26T03:51:01.018Z,98151.16
2017-07-26T03:53:28.534Z,98165.95
2017-07-26T03:55:56.068Z,98167.38
2017-07-26T03:58:23.629Z,98166.97
2017-07-26T04:00:51.182Z,98170.69
2017-07-26T04:03:18.803Z,98162.14
2017-07-26T04:05:46.322Z,98174.23
2017-07-26T04:08:13.882Z,98170.86
2017-07-26T04:10:41.397Z,98179.91
2017-07-26T04:13:08.948Z,98174.91
2017-07-26T04:15:36.470Z,98177.78
2017-07-26T04:18:04.038Z,98193.34
2017-07-26T04:20:31.562Z,98187.23
2017-07-26T04:22:59.134Z,98188.73
2017-07-26T04:25:26.650Z,98185.23
2017-07-26T04:27:54.212Z,98179.70
2017-07-26T04:30:21.757Z,98186.58
2017-07-26T04:32:49.419Z,98189.77
2017-07-26T04:35:16.939Z,98188.59
2017-07-26T04:37:44.492Z,98183.81
2017-07-26T04:40:12.013Z,98173.81
2017-07-26T04:42:39.584Z,98175.68
2017-07-26T04:45:07.115Z,98178.93
2017-07-26T04:47:34.655Z,98183.98
2017-07-26T04:50:02.198Z,98190.89
2017-07-26T04:52:29.794Z,98198.59
2017-07-26T04:54:57.484Z,98197.76
2017-07-26T04:57:25.019Z,98204.45
2017-07-26T04:59:52.577Z,98204.16
2017-07-26T05:02:20.121Z,98209.57
2017-07-26T05:04:47.695Z,98210.66
2017-07-26T05:07:15.206Z,98217.21
2017-07-26T05:09:42.764Z,98209.70
2017-07-26T05:12:10.322Z,98215.99
2017-07-26T05:14:37.881Z,98217.68
2017-07-26T05:17:05.397Z,98205.52
2017-07-26T05:19:32.990Z,98215.52
2017-07-26T05:22:00.512Z,98219.17
2017-07-26T05:24:28.076Z,98223.55
2017-07-26T05:26:55.589Z,98225.31
2017-07-26T05:29:23.172Z,98218.70
2017-07-26T05:31:50.697Z,98225.53
2017-07-26T05:34:18.203Z,98226.89
2017-07-26T05:36:45.747Z,98228.02
2017-07-26T05:39:13.266Z,98223.22
2017-07-26T05:41:40.815Z,98220.74
2017-07-26T05:44:08.338Z,98221.40
2017-07-26T05:46:35.915Z,98225.75
2017-07-26T05:49:03.465Z,98227.09
2017-07-26T05:51:31.026Z,98224.80
2017-07-26T05:53:58.554Z,98228.22
2017-07-26T05:56:26.102Z,98233.97
2017-07-26T05:58:53.632Z,98234.03
2017-07-26T06:01:21.192Z,98241.02
2017-07-26T06:03:48.713Z,98237.91
2017-07-26T06:06:16.263Z,98237.02
2017-07-26T06:08:43.787Z,98246.82
2017-07-26T06:11:11.339Z,98245.25
2017-07-26T06:13:39.339Z,98247.23
2017-07-26T06:16:06.853Z,98252.38
2017-07-26T06:18:34.435Z,98249.84
2017-07-26T06:21:01.962Z,98252.04
2017-07-26T06:23:29.523Z,98268.11
2017-07-26T06:25:57.052Z,98265.52
2017-07-26T06:28:24.604Z,98268.05
2017-07-26T06:30:52.131Z,98262.56
2017-07-26T06:33:19.679Z,98260.73
2017-07-26T06:35:47.202Z,98267.35
2017-07-26T06:38:14.762Z,98276.27
2017-07-26T06:40:42.276Z,98280.87
2017-07-26T06:43:09.832Z,98277.28
2017-07-26T06:45:37.349Z,98284.12
2017-07-26T06:48:04.910Z,98284.81
2017-07-26T06:50:32.428Z,98278.37
2017-07-26T06:52:59.972Z,98272.89
2017-07-26T06:55:27.495Z,98274.23
2017-07-26T06:57:55.044Z,98264.86
2017-07-26T07:00:22.563Z,98277.51
2017-07-26T07:02:50.079Z,98272.91
2017-07-26T07:05:17.638Z,98275.46
2017-07-26T07:07:45.154Z,98282.45
2017-07-26T07:10:12.709Z,98286.90
2017-07-26T07:12:40.225Z,98287.85
2017-07-26T07:15:07.775Z,98288.83
2017-07-26T07:17:35.288Z,98295.67
2017-07-26T07:20:02.843Z,98295.96
2017-07-26T07:22:30.357Z,98296.54
2017-07-26T07:24:57.907Z,98291.02
2017-07-26T07:27:25.426Z,98297.55
2017-07-26T07:29:52.977Z,98297.08
2017-07-26T07:32:20.493Z,98301.55
2017-07-26T07:34:48.039Z,98296.63
2017-07-26T07:37:15.558Z,98303.23
2017-07-26T07:39:43.114Z,98301.69
2017-07-26T07:42:10.629Z,98303.13
2017-07-26T07:44:38.181Z,98311.48
2017-07-26T07:47:05.696Z,98317.98
2017-07-26T07:49:33.246Z,98314.40
2017-07-26T07:52:00.760Z,98304.04
2017-07-26T07:54:28.287Z,98306.16
2017-07-26T07:56:55.837Z,98302.89
2017-07-26T07:59:23.357Z,98305.20
2017-07-26T08:01:50.911Z,98305.20
2017-07-26T08:04:18.424Z,98313.78
2017-07-26T08:06:45.971Z,98316.09
2017-07-26T08:09:13.494Z,98318.94
2017-07-26T08:11:41.040Z,98318.80
2017-07-26T08:14:08.562Z,98322.99
2017-07-26T08:16:36.123Z,98325.32
2017-07-26T08:19:03.649Z,98327.52
2017-07-26T08:21:31.212Z,98323.71
2017-07-26T08:23:58.740Z,98330.61
2017-07-26T08:26:26.291Z,98324.75
2017-07-26T08:28:53.810Z,98322.95
2017-07-26T08:31:21.365Z,98332.97
2017-07-26T08:33:48.893Z,98336.36
2017-07-26T08:36:16.445Z,98335.12
2017-07-26T08:38:43.961Z,98335.16
2017-07-26T08:41:12.366Z,98335.73
2017-07-26T08:43:39.882Z,98337.23
2017-07-26T08:46:07.408Z,98338.27
2017-07-26T08:48:34.978Z,98340.19
2017-07-26T08:51:02.506Z,98346.37
2017-07-26T08:53:30.060Z,98345.36
2017-07-26T08:55:57.581Z,98347.90
2017-07-26T08:58:25.130Z,98349.66
2017-07-26T09:00:52.643Z,98345.74
2017-07-26T09:03:20.198Z,98351.00
2017-07-26T09:05:47.724Z,98362.05
2017-07-26T09:08:15.303Z,98360.14
2017-07-26T09:10:42.823Z,98357.04
2017-07-26T09:13:10.377Z,98358.86
2017-07-26T09:15:37.894Z,98365.06
2017-07-26T09:18:05.445Z,98360.75
2017-07-26T09:20:32.972Z,98371.97
2017-07-26T09:23:00.517Z,98365.53
2017-07-26T09:25:28.038Z,98372.11
2017-07-26T09:27:55.590Z,98378.03
2017-07-26T09:30:23.105Z,98384.56
2017-07-26T09:32:50.661Z,98384.07
2017-07-26T09:35:18.181Z,98385.16
2017-07-26T09:37:45.704Z,98369.75
2017-07-26T09:40:13.260Z,98386.17
2017-07-26T09:42:40.787Z,98385.80
2017-07-26T09:45:08.332Z,98386.17
2017-07-26T09:47:35.860Z,98377.63
2017-07-26T09:50:03.405Z,98372.77
2017-07-26T09:52:30.933Z,98383.47
2017-07-26T09:54:58.649Z,98378.38
2017-07-26T09:57:26.164Z,98385.40
2017-07-26T09:59:53.717Z,98379.67
2017-07-26T10:02:21.240Z,98391.38
2017-07-26T10:04:48.793Z,98400.03
2017-07-26T10:07:16.316Z,98396.70
2017-07-26T10:09:43.869Z,98399.80
2017-07-26T10:12:11.394Z,98403.31
2017-07-26T10:14:38.940Z,98401.62
2017-07-26T10:17:06.457Z,98401.50
2017-07-26T10:19:34.002Z,98410.22
2017-07-26T10:22:01.531Z,98413.87
2017-07-26T10:24:29.106Z,98417.03
2017-07-26T10:26:56.626Z,98415.83
2017-07-26T10:29:24.146Z,98418.33
2017-07-26T10:31:51.705Z,98416.89
2017-07-26T10:34:19.225Z,98425.34
2017-07-26T10:36:46.782Z,98428.05
2017-07-26T10:39:14.297Z,98425.02
2017-07-26T10:41:41.845Z,98422.46
2017-07-26T10:44:09.369Z,98435.03
2017-07-26T10:46:36.916Z,98438.86
2017-07-26T10:49:04.441Z,98433.66
2017-07-26T10:51:31.994Z,98437.65
2017-07-26T10:53:59.514Z,98436.84
2017-07-26T10:56:27.068Z,98432.47
2017-07-26T10:58:54.589Z,98435.98
2017-07-26T11:01:22.146Z,98438.73
2017-07-26T11:03:49.664Z,98438.94
2017-07-26T11:06:17.186Z,98444.27
2017-07-26T11:08:44.746Z,98440.64
2017-07-26T11:11:12.278Z,98447.11
2017-07-26T11:13:40.447Z,98443.05
2017-07-26T11:16:07.969Z,98444.27
2017-07-26T11:18:35.528Z,98444.89
2017-07-26T11:21:03.043Z,98449.35
2017-07-26T11:23:30.597Z,98446.65
2017-07-26T11:25:58.108Z,98447.05
2017-07-26T11:30:59.438Z,98453.41
2017-07-26T11:33:26.979Z,98450.77
2017-07-26T11:35:54.507Z,98455.30
2017-07-26T11:38:22.053Z,98457.86
2017-07-26T11:40:49.585Z,98459.91
2017-07-26T11:43:17.142Z,98456.77
2017-07-26T11:45:44.669Z,98466.87
2017-07-26T11:48:12.204Z,98461.86
2017-07-26T11:50:39.750Z,98458.27
2017-07-26T11:53:07.277Z,98462.95
2017-07-26T11:55:34.839Z,98459.16
2017-07-26T11:58:02.362Z,98460.91
2017-07-26T12:00:29.920Z,98460.83
2017-07-26T12:02:57.438Z,98456.55
2017-07-26T12:05:24.993Z,98466.58
2017-07-26T12:07:52.517Z,98461.72
2017-07-26T12:10:20.099Z,98462.95
2017-07-26T12:12:47.613Z,98460.66
2017-07-26T12:15:15.135Z,98471.06
2017-07-26T12:17:42.685Z,98471.98
2017-07-26T12:20:10.210Z,98470.23
2017-07-26T12:22:37.769Z,98474.69
2017-07-26T12:25:05.291Z,98471.01
2017-07-26T12:27:32.846Z,98473.02
2017-07-26T12:30:00.362Z,98471.41
2017-07-26T12:32:27.923Z,98476.13
2017-07-26T12:34:55.449Z,98479.70
2017-07-26T12:37:22.981Z,98479.92
2017-07-26T12:39:50.534Z,98481.59
2017-07-26T12:42:18.062Z,98485.24
2017-07-26T12:44:45.612Z,98482.95
2017-07-26T12:47:13.138Z,98479.98
2017-07-26T12:49:40.694Z,98487.00
2017-07-26T12:52:08.229Z,98488.58
2017-07-26T12:54:35.781Z,98485.10
2017-07-26T12:57:03.294Z,98491.86
2017-07-26T12:59:30.840Z,98491.40
2017-07-26T13:01:58.350Z,98495.95
2017-07-26T13:04:25.890Z,98478.43
2017-07-26T13:06:53.409Z,98475.88
2017-07-26T13:09:20.989Z,98478.11
2017-07-26T13:11:48.507Z,98480.73
2017-07-26T13:14:16.030Z,98489.24
2017-07-26T13:16:43.586Z,98495.11
2017-07-26T13:19:11.129Z,98509.23
2017-07-26T13:21:38.689Z,98517.69
2017-07-26T13:24:06.240Z,98508.63
2017-07-26T13:26:33.867Z,98504.57
2017-07-26T13:29:01.429Z,98515.88
2017-07-26T13:31:28.996Z,98517.83
2017-07-26T13:33:56.518Z,98518.14
2017-07-26T13:36:24.071Z,98511.88
2017-07-26T13:38:51.591Z,98517.55
2017-07-26T13:41:19.135Z,98511.33
2017-07-26T13:43:46.650Z,98513.63
2017-07-26T13:46:14.202Z,98510.38
2017-07-26T13:48:41.803Z,98505.78
2017-07-26T13:51:09.322Z,98499.97
2017-07-26T13:53:36.879Z,98501.87
2017-07-26T13:56:04.402Z,98502.67
2017-07-26T13:58:31.945Z,98501.06
2017-07-26T14:00:59.484Z,98507.28
2017-07-26T14:03:27.038Z,98497.27
2017-07-26T14:05:54.563Z,98496.00
2017-07-26T14:08:22.107Z,98491.43
2017-07-26T14:10:49.730Z,98488.44
2017-07-26T14:13:17.273Z,98489.12
2017-07-26T14:15:44.792Z,98499.75
2017-07-26T14:18:12.364Z,98496.72
2017-07-26T14:20:39.925Z,98494.22
2017-07-26T14:23:07.482Z,98489.36
2017-07-26T14:25:34.994Z,98484.84
2017-07-26T14:28:02.551Z,98486.59
2017-07-26T14:30:30.079Z,98492.27
2017-07-26T14:32:57.612Z,98493.61
2017-07-26T14:35:25.148Z,98493.61
2017-07-26T14:37:52.666Z,98491.31
2017-07-26T14:40:20.218Z,98489.67
2017-07-26T14:42:47.730Z,98488.18
2017-07-26T14:45:15.291Z,98494.28
2017-07-26T14:47:42.809Z,98493.44
2017-07-26T14:50:10.367Z,98492.58
2017-07-26T14:52:37.895Z,98490.13
2017-07-26T14:55:05.456Z,98492.26
2017-07-26T14:57:32.980Z,98489.49
2017-07-26T15:00:00.526Z,98485.06
2017-07-26T15:02:28.129Z,98487.85
2017-07-26T15:04:55.674Z,98483.25
2017-07-26T15:07:23.192Z,98490.96
2017-07-26T15:09:50.748Z,98491.05
2017-07-26T15:12:18.270Z,98490.96
2017-07-26T15:14:45.849Z,98495.28
2017-07-26T15:17:13.369Z,98496.45
2017-07-26T15:19:40.904Z,98492.58
2017-07-26T15:22:08.453Z,98496.86
2017-07-26T15:24:35.965Z,98492.45
2017-07-26T15:27:05.957Z,98500.32
2017-07-26T15:29:33.948Z,98495.19
2017-07-26T15:32:02.120Z,98494.44
2017-07-26T15:34:29.885Z,98494.23
2017-07-26T15:36:57.637Z,98501.88
2017-07-26T15:39:25.448Z,98506.28
2017-07-26T15:41:53.167Z,98500.32
2017-07-26T15:44:21.351Z,98499.05
2017-07-26T15:46:50.035Z,98498.69
2017-07-26T15:49:18.967Z,98500.00
2017-07-26T15:51:47.052Z,98500.11
2017-07-26T15:54:15.433Z,98509.41
2017-07-26T15:56:43.506Z,98509.94
2017-07-26T15:59:11.349Z,98505.81
2017-07-26T16:01:39.316Z,98509.41
2017-07-26T16:04:07.418Z,98515.08
2017-07-26T16:06:35.073Z,98508.17
2017-07-26T16:09:02.853Z,98511.84
2017-07-26T16:11:30.603Z,98507.23
2017-07-26T16:13:58.738Z,98512.98
2017-07-26T16:16:26.373Z,98521.95
2017-07-26T16:18:54.316Z,98513.09
2017-07-26T16:21:22.377Z,98514.61
2017-07-26T16:23:50.489Z,98516.59
2017-07-26T16:26:18.691Z,98510.92
2017-07-26T16:28:46.489Z,98508.13
2017-07-26T16:31:14.606Z,98505.06
2017-07-26T16:33:42.708Z,98507.84
2017-07-26T16:36:10.301Z,98495.19
2017-07-26T16:38:38.161Z,98497.64
2017-07-26T16:41:07.196Z,98494.31
2017-07-26T16:43:35.676Z,98489.09
2017-07-26T16:46:04.330Z,98496.34
2017-07-26T16:48:32.468Z,98489.83
2017-07-26T16:51:00.548Z,98491.84
2017-07-26T16:53:28.516Z,98487.94
2017-07-26T16:55:56.372Z,98493.67
2017-07-26T16:58:24.253Z,98496.23
2017-07-26T17:00:52.189Z,98494.14
2017-07-26T17:03:20.091Z,98498.76
2017-07-26T17:05:48.061Z,98494.11
2017-07-26T17:08:15.918Z,98496.52
2017-07-26T17:10:43.471Z,98499.78
2017-07-26T17:13:11.846Z,98499.52
2017-07-26T17:15:39.500Z,98495.05
2017-07-26T17:18:07.746Z,98499.37
2017-07-26T17:20:35.567Z,98493.95
2017-07-26T17:23:03.274Z,98495.80
2017-07-26T17:25:32.714Z,98501.25
2017-07-26T17:28:01.257Z,98503.18
2017-07-26T17:30:29.802Z,98508.80
2017-07-26T17:32:57.979Z,98518.41
2017-07-26T17:35:25.934Z,98516.73
2017-07-26T17:37:54.051Z,98513.55
2017-07-26T17:40:21.873Z,98519.07
2017-07-26T17:42:49.836Z,98518.84
2017-07-26T17:45:17.441Z,98520.41
2017-07-26T17:47:44.985Z,98520.96
2017-07-26T17:50:12.593Z,98527.33
2017-07-26T17:52:40.449Z,98526.30
2017-07-26T17:55:08.230Z,98530.65
2017-07-26T17:57:35.779Z,98532.95
2017-07-26T18:00:03.301Z,98536.53
2017-07-26T18:02:30.875Z,98537.41
2017-07-26T18:04:58.395Z,98536.32
2017-07-26T18:07:25.979Z,98533.44
2017-07-26T18:09:53.489Z,98528.59
2017-07-26T18:12:21.038Z,98533.70
2017-07-26T18:14:48.553Z,98536.85
2017-07-26T18:17:16.100Z,98533.08
2017-07-26T18:19:43.617Z,98534.92
2017-07-26T18:22:11.171Z,98531.55
2017-07-26T18:24:38.725Z,98536.27
2017-07-26T18:27:06.246Z,98536.73
2017-07-26T18:29:33.805Z,98540.38
2017-07-26T18:32:01.321Z,98533.09
2017-07-26T18:34:29.221Z,98533.00
2017-07-26T18:36:57.384Z,98531.44
2017-07-26T18:39:25.107Z,98540.34
2017-07-26T18:41:52.983Z,98547.58
2017-07-26T18:44:20.749Z,98545.91
2017-07-26T18:46:48.606Z,98546.07
2017-07-26T18:49:16.585Z,98552.20
2017-07-26T18:51:44.162Z,98554.24
2017-07-26T18:54:11.909Z,98553.15
2017-07-26T18:56:39.504Z,98549.28
2017-07-26T18:59:07.516Z,98561.35
2017-07-26T19:01:35.099Z,98550.92
2017-07-26T19:04:02.660Z,98554.98
2017-07-26T19:06:30.206Z,98561.13
2017-07-26T19:08:57.734Z,98559.69
2017-07-26T19:11:25.325Z,98555.53
2017-07-26T19:13:52.851Z,98556.34
2017-07-26T19:16:20.457Z,98557.69
2017-07-26T19:18:47.990Z,98558.88
2017-07-26T19:21:15.541Z,98560.23
2017-07-26T19:23:43.059Z,98557.29
2017-07-26T19:26:10.572Z,98565.66
2017-07-26T19:28:38.125Z,98568.59
2017-07-26T19:31:05.666Z,98564.04
2017-07-26T19:33:33.217Z,98567.30
2017-07-26T19:36:00.730Z,98567.37
2017-07-26T19:38:28.289Z,98572.42
2017-07-26T19:40:56.056Z,98571.44
2017-07-26T19:43:24.411Z,98575.21
2017-07-26T19:45:52.097Z,98567.70
2017-07-26T19:48:19.843Z,98573.86
2017-07-26T19:50:47.711Z,98570.66
2017-07-26T19:53:15.271Z,98575.68
2017-07-26T19:55:42.867Z,98579.02
2017-07-26T19:58:10.727Z,98578.95
2017-07-26T20:00:38.339Z,98580.36
2017-07-26T20:03:06.056Z,98579.83
2017-07-26T20:05:33.652Z,98580.23
2017-07-26T20:08:01.173Z,98584.02
2017-07-26T20:10:28.720Z,98577.24
2017-07-26T20:12:56.240Z,98586.78
2017-07-26T20:15:23.801Z,98583.20
2017-07-26T20:17:51.322Z,98583.13
2017-07-26T20:20:18.845Z,98583.94
2017-07-26T20:22:46.398Z,98576.90
2017-07-26T20:25:13.925Z,98577.30
2017-07-26T20:27:41.498Z,98582.73
2017-07-26T20:30:09.022Z,98583.80
2017-07-26T20:32:36.552Z,98577.63
2017-07-26T20:35:04.096Z,98583.37
2017-07-26T20:37:31.866Z,98584.33
2017-07-26T20:39:59.649Z,98578.52
2017-07-26T20:42:27.499Z,98581.17
2017-07-26T20:44:55.076Z,98572.91
2017-07-26T20:47:22.640Z,98580.56
2017-07-26T20:49:50.160Z,98582.73
2017-07-26T20:52:17.705Z,98583.72
2017-07-26T20:54:45.232Z,98586.57
2017-07-26T20:57:13.214Z,98581.72
2017-07-26T20:59:40.741Z,98578.84
2017-07-26T21:02:08.303Z,98585.09
2017-07-26T21:04:35.847Z,98591.61
2017-07-26T21:07:03.361Z,98584.90
2017-07-26T21:09:30.920Z,98588.82
2017-07-26T21:11:58.437Z,98592.41
2017-07-26T21:14:25.980Z,98591.31
2017-07-26T21:16:53.810Z,98588.28
2017-07-26T21:19:21.370Z,98582.58
2017-07-26T21:21:49.043Z,98581.23
2017-07-26T21:24:17.217Z,98585.42
2017-07-26T21:26:45.004Z,98587.38
2017-07-26T21:29:12.824Z,98590.16
2017-07-26T21:31:40.383Z,98589.67
2017-07-26T21:34:07.908Z,98582.50
2017-07-26T21:36:35.456Z,98585.73
2017-07-26T21:39:02.981Z,98581.55
2017-07-26T21:41:30.710Z,98580.77
2017-07-26T21:43:58.232Z,98581.45
2017-07-26T21:46:25.781Z,98579.35
2017-07-26T21:48:53.309Z,98577.66
2017-07-26T21:51:20.839Z,98578.74
2017-07-26T21:53:48.395Z,98577.71
2017-07-26T21:56:15.909Z,98576.36
2017-07-26T21:58:43.461Z,98573.73
2017-07-26T22:01:10.982Z,98578.66
2017-07-26T22:03:38.708Z,98570.89
2017-07-26T22:06:06.234Z,98575.13
2017-07-26T22:08:33.783Z,98585.16
2017-07-26T22:11:01.301Z,98578.94
2017-07-26T22:13:28.845Z,98579.26
2017-07-26T22:15:56.366Z,98574.33
2017-07-26T22:18:23.938Z,98574.06
2017-07-26T22:20:51.462Z,98575.42
2017-07-26T22:23:18.979Z,98581.86
2017-07-26T22:25:46.525Z,98575.91
2017-07-26T22:28:14.036Z,98578.39
2017-07-26T22:30:41.600Z,98583.25
2017-07-26T22:33:09.120Z,98579.59
2017-07-26T22:35:36.675Z,98588.09
2017-07-26T22:38:04.190Z,98583.80
2017-07-26T22:40:31.733Z,98582.08
2017-07-26T22:42:59.255Z,98580.17
2017-07-26T22:45:26.808Z,98579.11
2017-07-26T22:47:54.330Z,98578.18
2017-07-26T22:50:21.905Z,98578.65
2017-07-26T22:52:49.421Z,98574.86
2017-07-26T22:55:16.939Z,98573.02
2017-07-26T22:57:44.493Z,98571.75
2017-07-26T23:00:12.007Z,98576.19
2017-07-26T23:02:39.561Z,98581.08
2017-07-26T23:05:07.081Z,98581.73
2017-07-26T23:07:34.643Z,98582.09
2017-07-26T23:10:02.171Z,98580.99
2017-07-26T23:12:29.721Z,98571.88
2017-07-26T23:14:57.245Z,98574.98
2017-07-26T23:17:24.801Z,98578.49
2017-07-26T23:19:52.324Z,98568.30
2017-07-26T23:22:19.849Z,98570.45
2017-07-26T23:24:47.397Z,98569.38
2017-07-26T23:27:14.918Z,98562.31
2017-07-26T23:29:42.482Z,98565.91
2017-07-26T23:32:10.012Z,98560.16
2017-07-26T23:34:37.553Z,98561.51
2017-07-26T23:37:05.077Z,98552.98
2017-07-26T23:39:32.630Z,98551.34
2017-07-26T23:42:00.157Z,98550.36
2017-07-26T23:44:27.680Z,98552.35
2017-07-26T23:46:55.323Z,98548.09
2017-07-26T23:49:22.850Z,98551.77
2017-07-26T23:51:50.443Z,98553.36
2017-07-26T23:54:17.961Z,98554.86
2017-07-26T23:56:45.509Z,98556.08
2017-07-26T23:59:13.037Z,98556.10
